createdAt,value
2023-08-29T00:01:30.077Z,97982.03
2023-08-29T00:03:57.579Z,97978.06
2023-08-29T00:06:24.160Z,97967.88
2023-08-29T00:08:50.664Z,97969.09
2023-08-29T00:11:18.017Z,97970.31
2023-08-29T00:13:44.902Z,97968.38
2023-08-29T00:16:17.145Z,97963.50
2023-08-29T00:18:46.067Z,97968.28
2023-08-29T00:21:12.969Z,97972.25
2023-08-29T00:23:39.431Z,97975.50
2023-08-29T00:26:05.946Z,97972.34
2023-08-29T00:28:32.390Z,97966.69
2023-08-29T00:30:58.834Z,97967.97
2023-08-29T00:33:25.375Z,97970.84
2023-08-29T00:35:51.823Z,97976.75
2023-08-29T00:38:18.491Z,97977.50
2023-08-29T00:40:45.034Z,97972.81
2023-08-29T00:43:11.447Z,97972.81
2023-08-29T00:45:38.453Z,97977.16
2023-08-29T00:48:07.416Z,97985.00
2023-08-29T00:50:38.246Z,97980.00
2023-08-29T00:53:06.423Z,97996.16
2023-08-29T00:55:35.919Z,97999.66
2023-08-29T00:58:05.980Z,98008.28
2023-08-29T01:00:33.858Z,98019.47
2023-08-29T01:03:01.610Z,98030.00
2023-08-29T01:05:29.844Z,98034.22
2023-08-29T01:07:59.701Z,98042.06
2023-08-29T01:10:42.265Z,98044.63
2023-08-29T01:13:23.138Z,98049.16
2023-08-29T01:15:51.533Z,98041.03
2023-08-29T01:18:20.727Z,98051.88
2023-08-29T01:20:50.295Z,98048.91
2023-08-29T01:23:34.580Z,98038.97
2023-08-29T01:26:15.309Z,98046.59
2023-08-29T01:28:44.483Z,98038.63
2023-08-29T01:31:12.284Z,98038.44
2023-08-29T01:33:39.648Z,98048.50
2023-08-29T01:36:06.921Z,98061.25
2023-08-29T01:38:33.737Z,98055.63
2023-08-29T01:41:00.193Z,98062.34
2023-08-29T01:43:26.689Z,98066.78
2023-08-29T01:45:53.152Z,98053.88
2023-08-29T01:48:22.372Z,98050.72
2023-08-29T01:50:49.535Z,98038.72
2023-08-29T01:53:16.057Z,98033.19
2023-08-29T01:55:45.094Z,98023.59
2023-08-29T01:58:13.435Z,98018.53
2023-08-29T02:00:41.043Z,98026.84
2023-08-29T02:03:08.144Z,98018.13
2023-08-29T02:05:34.704Z,98009.72
2023-08-29T02:08:01.127Z,98000.09
2023-08-29T02:10:27.606Z,98004.31
2023-08-29T02:12:54.018Z,98006.22
2023-08-29T02:15:20.468Z,98008.97
2023-08-29T02:17:47.211Z,98011.34
2023-08-29T02:20:14.654Z,98015.75
2023-08-29T02:22:41.104Z,98006.28
2023-08-29T02:25:08.915Z,98002.06
2023-08-29T02:27:35.517Z,98005.47
2023-08-29T02:30:02.197Z,97992.22
2023-08-29T02:32:29.639Z,97987.47
2023-08-29T02:34:56.230Z,97977.78
2023-08-29T02:37:22.810Z,97974.28
2023-08-29T02:39:49.262Z,97983.25
2023-08-29T02:42:15.675Z,97975.81
2023-08-29T02:44:42.104Z,97964.28
2023-08-29T02:47:08.709Z,97963.28
2023-08-29T02:49:35.246Z,97966.78
2023-08-29T02:52:01.958Z,97958.75
2023-08-29T02:54:28.361Z,97962.19
2023-08-29T02:56:54.841Z,97959.13
2023-08-29T02:59:21.314Z,97947.50
2023-08-29T03:01:50.519Z,97954.72
2023-08-29T03:04:16.911Z,97937.66
2023-08-29T03:06:43.319Z,97936.41
2023-08-29T03:09:09.767Z,97935.41
2023-08-29T03:11:36.333Z,97934.38
2023-08-29T03:14:04.849Z,97933.53
2023-08-29T03:16:31.471Z,97934.34
2023-08-29T03:18:58.209Z,97930.47
2023-08-29T03:21:24.752Z,97925.56
2023-08-29T03:23:51.157Z,97918.56
2023-08-29T03:26:17.625Z,97926.59
2023-08-29T03:28:44.904Z,97923.84
2023-08-29T03:31:16.149Z,97922.66
2023-08-29T03:33:44.373Z,97931.88
2023-08-29T03:36:11.342Z,97916.78
2023-08-29T03:38:39.510Z,97931.50
2023-08-29T03:41:07.021Z,97932.53
2023-08-29T03:43:35.225Z,97934.34
2023-08-29T03:46:06.275Z,97932.81
2023-08-29T03:48:34.632Z,97935.00
2023-08-29T03:51:07.402Z,97936.34
2023-08-29T03:53:37.854Z,97935.84
2023-08-29T03:56:06.357Z,97942.78
2023-08-29T03:58:33.297Z,97950.72
2023-08-29T04:01:00.050Z,97953.78
2023-08-29T04:03:26.997Z,97956.72
2023-08-29T04:05:53.847Z,97953.50
2023-08-29T04:08:20.417Z,97961.16
2023-08-29T04:10:47.551Z,97958.47
2023-08-29T04:13:14.036Z,97959.50
2023-08-29T04:15:40.569Z,97960.88
2023-08-29T04:18:09.263Z,97954.19
2023-08-29T04:20:36.775Z,97952.00
2023-08-29T04:23:08.110Z,97952.38
2023-08-29T04:25:36.817Z,97954.13
2023-08-29T04:28:04.791Z,97950.56
2023-08-29T04:30:31.571Z,97956.91
2023-08-29T04:32:59.271Z,97950.84
2023-08-29T04:35:26.142Z,97945.00
2023-08-29T04:37:52.936Z,97947.75
2023-08-29T04:40:19.758Z,97944.53
2023-08-29T04:42:46.299Z,97945.66
2023-08-29T04:45:12.937Z,97943.34
2023-08-29T04:47:40.687Z,97949.53
2023-08-29T04:50:09.109Z,97940.06
2023-08-29T04:52:35.877Z,97936.63
2023-08-29T04:55:02.482Z,97939.66
2023-08-29T04:57:28.944Z,97935.47
2023-08-29T04:59:55.436Z,97940.28
2023-08-29T05:02:22.725Z,97942.13
2023-08-29T05:04:49.419Z,97943.78
2023-08-29T05:07:15.892Z,97938.06
2023-08-29T05:09:42.671Z,97936.34
2023-08-29T05:12:11.478Z,97937.41
2023-08-29T05:14:39.772Z,97935.81
2023-08-29T05:17:07.192Z,97936.97
2023-08-29T05:19:34.019Z,97938.47
2023-08-29T05:22:00.609Z,97941.78
2023-08-29T05:24:27.230Z,97941.13
2023-08-29T05:26:54.003Z,97942.44
2023-08-29T05:29:23.316Z,97942.63
2023-08-29T05:31:49.771Z,97937.34
2023-08-29T05:34:16.218Z,97942.44
2023-08-29T05:36:42.692Z,97932.88
2023-08-29T05:39:09.231Z,97936.09
2023-08-29T05:41:35.723Z,97937.31
2023-08-29T05:44:02.382Z,97942.53
2023-08-29T05:46:28.875Z,97940.06
2023-08-29T05:48:55.853Z,97939.50
2023-08-29T05:51:22.441Z,97940.81
2023-08-29T05:53:49.014Z,97938.81
2023-08-29T05:56:15.599Z,97937.47
2023-08-29T05:58:42.069Z,97936.69
2023-08-29T06:01:10.254Z,97942.88
2023-08-29T06:03:37.567Z,97936.94
2023-08-29T06:06:04.675Z,97935.38
2023-08-29T06:08:34.424Z,97933.19
2023-08-29T06:11:01.959Z,97937.91
2023-08-29T06:13:28.566Z,97938.28
2023-08-29T06:15:55.285Z,97934.75
2023-08-29T06:18:21.950Z,97937.44
2023-08-29T06:20:48.439Z,97938.50
2023-08-29T06:23:14.874Z,97924.75
2023-08-29T06:25:42.567Z,97936.47
2023-08-29T06:28:09.365Z,97939.97
2023-08-29T06:30:39.411Z,97937.16
2023-08-29T06:33:08.073Z,97944.25
2023-08-29T06:35:40.876Z,97943.22
2023-08-29T06:38:08.548Z,97943.78
2023-08-29T06:40:36.153Z,97934.09
2023-08-29T06:43:06.085Z,97941.94
2023-08-29T06:45:33.099Z,97946.53
2023-08-29T06:48:31.713Z,97945.97
2023-08-29T06:51:02.224Z,97954.00
2023-08-29T06:53:28.760Z,97949.31
2023-08-29T06:55:55.331Z,97940.25
2023-08-29T06:58:21.787Z,97948.16
2023-08-29T07:00:48.447Z,97942.16
2023-08-29T07:03:18.357Z,97943.19
2023-08-29T07:05:48.307Z,97949.84
2023-08-29T07:08:17.437Z,97946.31
2023-08-29T07:10:43.894Z,97943.41
2023-08-29T07:13:10.407Z,97947.34
2023-08-29T07:15:36.850Z,97955.22
2023-08-29T07:18:07.136Z,97946.09
2023-08-29T07:20:34.759Z,97950.25
2023-08-29T07:23:01.371Z,97949.41
2023-08-29T07:25:43.444Z,97949.41
2023-08-29T07:28:13.073Z,97945.28
2023-08-29T07:30:43.312Z,97958.97
2023-08-29T07:33:11.886Z,97953.75
2023-08-29T07:35:41.819Z,97959.56
2023-08-29T07:38:09.158Z,97958.53
2023-08-29T07:40:36.080Z,97959.34
2023-08-29T07:46:13.960Z,97964.13
2023-08-29T07:48:41.250Z,97975.50
2023-08-29T07:51:08.125Z,97974.66
2023-08-29T07:53:34.574Z,97976.31
2023-08-29T07:56:01.009Z,97980.91
2023-08-29T07:58:27.614Z,97975.69
2023-08-29T08:00:54.085Z,97982.50
2023-08-29T08:03:20.503Z,97981.06
2023-08-29T08:05:46.962Z,97987.66
2023-08-29T08:08:13.386Z,97990.00
2023-08-29T08:10:39.907Z,97993.31
2023-08-29T08:13:06.739Z,97984.41
2023-08-29T08:15:33.181Z,97992.88
2023-08-29T08:17:59.643Z,97992.47
2023-08-29T08:20:26.110Z,97985.81
2023-08-29T08:22:52.561Z,97981.78
2023-08-29T08:25:18.983Z,97991.56
2023-08-29T08:27:45.496Z,97991.28
2023-08-29T08:30:12.233Z,97984.56
2023-08-29T08:32:39.215Z,97999.97
2023-08-29T08:35:07.747Z,97999.56
2023-08-29T08:37:35.290Z,97998.69
2023-08-29T08:40:02.206Z,97992.81
2023-08-29T08:42:30.854Z,97996.31
2023-08-29T08:44:57.792Z,97988.47
2023-08-29T08:47:25.113Z,97991.59
2023-08-29T08:49:52.051Z,97998.25
2023-08-29T08:52:18.812Z,97999.47
2023-08-29T08:54:45.519Z,97999.72
2023-08-29T08:57:17.702Z,98000.72
2023-08-29T08:59:44.516Z,98003.50
2023-08-29T09:02:15.615Z,98000.25
2023-08-29T09:04:42.118Z,98008.56
2023-08-29T09:07:08.658Z,98010.97
2023-08-29T09:09:35.196Z,98005.56
2023-08-29T09:12:01.714Z,98002.97
2023-08-29T09:14:28.428Z,98005.81
2023-08-29T09:16:59.059Z,98004.81
2023-08-29T09:19:26.559Z,98004.94
2023-08-29T09:21:53.340Z,98006.84
2023-08-29T09:24:29.352Z,98002.50
2023-08-29T09:26:55.835Z,98009.78
2023-08-29T09:29:22.554Z,98012.16
2023-08-29T09:31:49.494Z,98005.19
2023-08-29T09:34:24.995Z,98010.53
2023-08-29T09:36:51.552Z,98005.97
2023-08-29T09:39:18.333Z,98003.53
2023-08-29T09:41:57.843Z,98011.09
2023-08-29T09:44:24.238Z,98011.63
2023-08-29T09:46:50.642Z,98005.91
2023-08-29T09:49:17.304Z,98010.16
2023-08-29T09:51:45.040Z,98002.75
2023-08-29T09:54:13.824Z,97996.72
2023-08-29T09:56:43.201Z,97995.50
2023-08-29T09:59:13.983Z,97993.72
2023-08-29T10:01:45.438Z,97990.25
2023-08-29T10:04:15.440Z,97990.53
2023-08-29T10:06:42.329Z,97991.81
2023-08-29T10:09:09.112Z,97990.00
2023-08-29T10:11:48.431Z,97982.03
2023-08-29T10:14:21.813Z,97991.72
2023-08-29T10:16:51.636Z,97990.06
2023-08-29T10:19:19.900Z,97984.91
2023-08-29T10:21:49.049Z,97990.91
2023-08-29T10:24:16.144Z,97982.03
2023-08-29T10:26:45.375Z,97979.09
2023-08-29T10:29:11.892Z,97982.19
2023-08-29T10:31:39.516Z,97988.22
2023-08-29T10:34:06.085Z,97991.97
2023-08-29T10:36:33.192Z,97988.94
2023-08-29T10:39:00.368Z,97992.94
2023-08-29T10:41:27.117Z,97985.53
2023-08-29T10:44:25.717Z,97986.75
2023-08-29T10:46:55.583Z,97995.94
2023-08-29T10:49:23.103Z,97987.59
2023-08-29T10:52:11.598Z,97989.41
2023-08-29T10:54:38.622Z,97988.97
2023-08-29T10:57:27.869Z,97982.22
2023-08-29T10:59:54.987Z,97977.16
2023-08-29T11:02:30.200Z,97973.59
2023-08-29T11:05:05.697Z,97971.13
2023-08-29T11:07:36.455Z,97976.41
2023-08-29T11:10:13.392Z,97976.47
2023-08-29T11:13:02.553Z,97973.56
2023-08-29T11:15:50.950Z,97970.28
2023-08-29T11:18:23.216Z,97966.81
2023-08-29T11:20:49.670Z,97965.94
2023-08-29T11:23:16.134Z,97965.53
2023-08-29T11:25:43.429Z,97969.88
2023-08-29T11:28:09.917Z,97968.69
2023-08-29T11:30:44.348Z,97973.50
2023-08-29T11:33:11.816Z,97976.78
2023-08-29T11:35:38.383Z,97978.22
2023-08-29T11:38:07.302Z,97975.53
2023-08-29T11:40:45.571Z,97968.53
2023-08-29T11:43:54.179Z,97973.88
2023-08-29T11:46:09.956Z,97966.31
2023-08-29T11:48:39.638Z,97970.00
2023-08-29T11:51:09.691Z,97965.34
2023-08-29T11:53:37.813Z,97962.13
2023-08-29T11:56:06.497Z,97968.63
2023-08-29T11:58:38.622Z,97964.59
2023-08-29T12:01:05.963Z,97965.13
2023-08-29T12:03:39.363Z,97963.22
2023-08-29T12:06:13.478Z,97964.19
2023-08-29T12:08:48.702Z,97960.81
2023-08-29T12:11:16.656Z,97956.81
2023-08-29T12:14:08.421Z,97954.94
2023-08-29T12:16:34.963Z,97948.91
2023-08-29T12:19:06.869Z,97952.13
2023-08-29T12:21:33.390Z,97948.03
2023-08-29T12:24:11.516Z,97950.59
2023-08-29T12:26:38.041Z,97944.47
2023-08-29T12:29:04.624Z,97939.63
2023-08-29T12:31:31.108Z,97934.97
2023-08-29T12:33:57.522Z,97935.41
2023-08-29T12:36:24.007Z,97934.69
2023-08-29T12:38:50.464Z,97931.63
2023-08-29T12:41:18.202Z,97929.63
2023-08-29T12:43:44.640Z,97936.06
2023-08-29T12:46:11.089Z,97934.56
2023-08-29T12:48:37.888Z,97936.09
2023-08-29T12:51:04.579Z,97932.97
2023-08-29T12:53:31.284Z,97933.59
2023-08-29T12:55:58.300Z,97932.84
2023-08-29T12:58:24.779Z,97929.06
2023-08-29T13:00:51.323Z,97930.94
2023-08-29T13:03:17.911Z,97932.22
2023-08-29T13:05:44.407Z,97929.53
2023-08-29T13:08:10.979Z,97916.19
2023-08-29T13:10:40.394Z,97915.63
2023-08-29T13:13:07.035Z,97912.84
2023-08-29T13:15:48.517Z,97916.16
2023-08-29T13:18:17.245Z,97914.69
2023-08-29T13:20:44.626Z,97912.00
2023-08-29T13:23:11.221Z,97923.69
2023-08-29T13:25:37.724Z,97927.00
2023-08-29T13:28:05.478Z,97927.91
2023-08-29T13:30:33.912Z,97929.22
2023-08-29T13:33:00.486Z,97926.88
2023-08-29T13:35:27.061Z,97934.75
2023-08-29T13:37:53.536Z,97929.06
2023-08-29T13:40:21.675Z,97932.56
2023-08-29T13:42:48.306Z,97925.47
2023-08-29T13:45:14.863Z,97938.38
2023-08-29T13:47:41.408Z,97932.75
2023-08-29T13:50:08.644Z,97940.00
2023-08-29T13:52:35.155Z,97939.16
2023-08-29T13:55:01.714Z,97944.16
2023-08-29T13:57:28.198Z,97949.91
2023-08-29T13:59:54.688Z,97951.50
2023-08-29T14:02:21.177Z,97952.25
2023-08-29T14:04:47.643Z,97954.28
2023-08-29T14:07:17.648Z,97951.63
2023-08-29T14:09:44.455Z,97952.38
2023-08-29T14:12:10.945Z,97942.03
2023-08-29T14:14:37.389Z,97946.84
2023-08-29T14:17:04.086Z,97945.81
2023-08-29T14:19:31.377Z,97943.91
2023-08-29T14:21:57.842Z,97944.31
2023-08-29T14:24:24.441Z,97936.44
2023-08-29T14:26:50.994Z,97939.53
2023-08-29T14:29:17.405Z,97938.72
2023-08-29T14:31:44.092Z,97943.31
2023-08-29T14:34:10.688Z,97942.09
2023-08-29T14:36:37.126Z,97945.59
2023-08-29T14:39:03.799Z,97944.63
2023-08-29T14:41:30.829Z,97941.69
2023-08-29T14:43:57.375Z,97934.06
2023-08-29T14:46:24.097Z,97936.34
2023-08-29T14:48:50.581Z,97940.69
2023-08-29T14:51:17.156Z,97935.25
2023-08-29T14:53:43.686Z,97934.63
2023-08-29T14:56:10.178Z,97935.44
2023-08-29T14:58:36.793Z,97932.72
2023-08-29T15:01:03.428Z,97938.56
2023-08-29T15:03:30.124Z,97947.03
2023-08-29T15:05:58.163Z,97946.38
2023-08-29T15:08:26.765Z,97943.91
2023-08-29T15:10:54.435Z,97942.72
2023-08-29T15:13:22.284Z,97948.91
2023-08-29T15:15:48.849Z,97936.72
2023-08-29T15:18:16.500Z,97944.78
2023-08-29T15:21:23.824Z,97940.00
2023-08-29T15:23:54.605Z,97941.44
2023-08-29T15:26:21.052Z,97941.84
2023-08-29T15:28:47.460Z,97935.59
2023-08-29T15:31:14.352Z,97944.78
2023-08-29T15:33:40.776Z,97948.09
2023-08-29T15:36:07.254Z,97941.44
2023-08-29T15:38:33.717Z,97946.63
2023-08-29T15:41:00.334Z,97944.34
2023-08-29T15:43:26.763Z,97942.50
2023-08-29T15:45:53.664Z,97945.56
2023-08-29T15:48:20.218Z,97950.34
2023-08-29T15:50:47.077Z,97943.50
2023-08-29T15:53:14.352Z,97945.56
2023-08-29T15:55:41.998Z,97939.78
2023-08-29T15:58:09.819Z,97943.16
2023-08-29T16:00:37.932Z,97940.84
2023-08-29T16:03:04.845Z,97934.66
2023-08-29T16:05:31.366Z,97935.69
2023-08-29T16:07:57.825Z,97937.75
2023-08-29T16:10:24.392Z,97935.47
2023-08-29T16:12:50.917Z,97936.94
2023-08-29T16:15:17.761Z,97934.84
2023-08-29T16:17:44.656Z,97938.56
2023-08-29T16:20:11.742Z,97933.81
2023-08-29T16:22:38.833Z,97928.63
2023-08-29T16:25:08.704Z,97939.41
2023-08-29T16:27:38.862Z,97938.13
2023-08-29T16:30:08.276Z,97941.28
2023-08-29T16:32:35.801Z,97939.41
2023-08-29T16:35:02.917Z,97930.50
2023-08-29T16:37:29.749Z,97938.13
2023-08-29T16:39:56.402Z,97939.63
2023-08-29T16:42:23.839Z,97938.97
2023-08-29T16:44:51.422Z,97941.00
2023-08-29T16:47:17.928Z,97940.59
2023-08-29T16:49:44.491Z,97943.91
2023-08-29T16:52:10.949Z,97943.09
2023-08-29T16:54:37.394Z,97940.16
2023-08-29T16:57:04.454Z,97938.13
2023-08-29T16:59:32.446Z,97936.94
2023-08-29T17:01:59.310Z,97946.22
2023-08-29T17:04:26.103Z,97943.50
2023-08-29T17:06:52.599Z,97941.44
2023-08-29T17:09:19.034Z,97947.06
2023-08-29T17:11:45.794Z,97942.09
2023-08-29T17:14:12.251Z,97944.19
2023-08-29T17:16:38.729Z,97944.59
2023-08-29T17:19:05.176Z,97952.09
2023-08-29T17:21:31.685Z,97945.44
2023-08-29T17:23:58.127Z,97944.00
2023-08-29T17:26:24.584Z,97938.56
2023-08-29T17:28:51.130Z,97943.78
2023-08-29T17:31:18.173Z,97946.28
2023-08-29T17:33:44.636Z,97943.19
2023-08-29T17:36:11.093Z,97951.47
2023-08-29T17:38:37.659Z,97949.41
2023-08-29T17:41:04.278Z,97951.91
2023-08-29T17:43:30.739Z,97949.84
2023-08-29T17:45:58.101Z,97953.56
2023-08-29T17:48:27.208Z,97949.59
2023-08-29T17:50:59.271Z,97954.78
2023-08-29T17:53:27.041Z,97957.94
2023-08-29T17:55:54.960Z,97950.81
2023-08-29T17:58:25.095Z,97955.16
2023-08-29T18:00:53.144Z,97957.63
2023-08-29T18:03:19.722Z,97960.28
2023-08-29T18:05:50.933Z,97954.91
2023-08-29T18:08:18.306Z,97952.19
2023-08-29T18:10:45.756Z,97956.53
2023-08-29T18:13:13.696Z,97948.06
2023-08-29T18:15:41.343Z,97951.56
2023-08-29T18:18:29.125Z,97960.47
2023-08-29T18:20:57.813Z,97955.22
2023-08-29T18:23:25.449Z,97955.91
2023-08-29T18:25:53.487Z,97961.06
2023-08-29T18:28:19.990Z,97948.00
2023-08-29T18:30:46.461Z,97957.72
2023-08-29T18:33:13.067Z,97958.94
2023-08-29T18:35:41.101Z,97963.44
2023-08-29T18:38:08.325Z,97953.22
2023-08-29T18:40:35.229Z,97960.41
2023-08-29T18:43:03.644Z,97966.38
2023-08-29T18:45:30.471Z,97962.16
2023-08-29T18:48:00.280Z,97965.34
2023-08-29T18:52:54.907Z,97971.63
2023-08-29T18:55:21.497Z,97977.47
2023-08-29T18:57:47.943Z,97977.91
2023-08-29T19:00:15.561Z,97983.50
2023-08-29T19:02:43.693Z,97994.91
2023-08-29T19:05:11.735Z,97988.78
2023-08-29T19:07:39.230Z,97988.88
2023-08-29T19:12:34.751Z,97993.13
2023-08-29T19:15:03.919Z,97993.59
2023-08-29T19:17:32.836Z,97991.91
2023-08-29T19:19:59.293Z,97993.91
2023-08-29T19:22:25.761Z,97988.69
2023-08-29T19:24:52.272Z,97983.72
2023-08-29T19:27:23.849Z,97987.03
2023-08-29T19:29:53.604Z,97993.50
2023-08-29T19:32:20.251Z,97988.00
2023-08-29T19:34:47.340Z,97987.78
2023-08-29T19:37:14.088Z,97987.94
2023-08-29T19:39:40.612Z,97988.59
2023-08-29T19:42:07.277Z,97991.94
2023-08-29T19:44:33.773Z,97994.84
2023-08-29T19:47:02.749Z,97990.50
2023-08-29T19:49:38.036Z,98000.50
2023-08-29T19:52:05.962Z,97986.06
2023-08-29T19:54:32.508Z,97990.31
2023-08-29T19:56:59.241Z,97988.00
2023-08-29T19:59:25.732Z,97983.66
2023-08-29T20:01:52.382Z,97984.28
2023-08-29T20:04:18.829Z,97982.00
2023-08-29T20:06:45.519Z,97985.91
2023-08-29T20:09:12.613Z,97976.41
2023-08-29T20:11:39.428Z,97986.63
2023-08-29T20:14:06.023Z,97977.78
2023-08-29T20:16:33.112Z,97989.06
2023-08-29T20:18:59.652Z,97982.97
2023-08-29T20:22:27.623Z,97982.47
2023-08-29T20:24:27.212Z,97966.34
2023-08-29T20:27:31.580Z,97973.44
2023-08-29T20:29:58.861Z,97960.59
2023-08-29T20:32:32.265Z,97973.72
2023-08-29T20:34:58.713Z,97973.72
2023-08-29T20:37:25.145Z,97973.88
2023-08-29T20:39:52.151Z,97976.53
2023-08-29T20:42:18.662Z,97974.09
2023-08-29T20:44:45.331Z,97966.66
2023-08-29T20:47:13.131Z,97959.28
2023-08-29T20:49:39.798Z,97960.50
2023-08-29T20:52:11.478Z,97957.59
2023-08-29T20:54:38.670Z,97954.63
2023-08-29T20:57:05.652Z,97954.91
2023-08-29T20:59:32.100Z,97961.97
2023-08-29T21:01:58.891Z,97958.59
2023-08-29T21:04:26.471Z,97956.41
2023-08-29T21:06:52.932Z,97957.53
2023-08-29T21:09:20.749Z,97953.72
2023-08-29T21:11:50.511Z,97958.13
2023-08-29T21:14:17.183Z,97955.22
2023-08-29T21:16:43.704Z,97947.19
2023-08-29T21:19:10.180Z,97949.28
2023-08-29T21:21:36.602Z,97952.72
2023-08-29T21:24:03.069Z,97957.50
2023-08-29T21:26:29.596Z,97947.13
2023-08-29T21:28:56.051Z,97948.16
2023-08-29T21:31:22.603Z,97944.34
2023-08-29T21:33:49.105Z,97944.72
2023-08-29T21:36:15.554Z,97937.25
2023-08-29T21:38:43.890Z,97939.59
2023-08-29T21:41:10.447Z,97935.28
2023-08-29T21:43:36.982Z,97941.81
2023-08-29T21:46:07.317Z,97948.03
2023-08-29T21:48:33.931Z,97941.56
2023-08-29T21:51:02.323Z,97938.09
2023-08-29T21:53:28.852Z,97937.41
2023-08-29T21:55:55.273Z,97931.56
2023-08-29T21:58:21.812Z,97926.59
2023-08-29T22:00:48.199Z,97931.84
2023-08-29T22:03:14.959Z,97924.16
2023-08-29T22:05:41.581Z,97914.31
2023-08-29T22:08:08.194Z,97919.59
2023-08-29T22:10:35.323Z,97920.91
2023-08-29T22:13:02.225Z,97915.91
2023-08-29T22:15:28.668Z,97914.31
2023-08-29T22:17:55.414Z,97920.69
2023-08-29T22:20:21.954Z,97920.56
2023-08-29T22:22:51.260Z,97919.28
2023-08-29T22:25:18.303Z,97920.09
2023-08-29T22:27:44.689Z,97922.44
2023-08-29T22:30:11.646Z,97911.31
2023-08-29T22:32:38.865Z,97913.78
2023-08-29T22:35:05.776Z,97907.63
2023-08-29T22:37:32.344Z,97904.84
2023-08-29T22:39:59.127Z,97905.53
2023-08-29T22:42:25.654Z,97905.50
2023-08-29T22:44:52.252Z,97896.63
2023-08-29T22:47:19.862Z,97903.84
2023-08-29T22:49:46.714Z,97899.84
2023-08-29T22:52:13.152Z,97905.03
2023-08-29T22:54:39.569Z,97913.88
2023-08-29T22:57:06.336Z,97902.53
2023-08-29T22:59:33.052Z,97904.38
2023-08-29T23:02:00.260Z,97910.88
2023-08-29T23:04:30.138Z,97902.38
2023-08-29T23:07:04.169Z,97909.56
2023-08-29T23:09:34.450Z,97908.38
2023-08-29T23:12:04.786Z,97899.22
2023-08-29T23:14:31.289Z,97897.41
2023-08-29T23:16:58.095Z,97904.72
2023-08-29T23:19:25.046Z,97905.19
2023-08-29T23:21:52.621Z,97900.84
2023-08-29T23:24:19.453Z,97903.84
2023-08-29T23:26:46.100Z,97904.00
2023-08-29T23:29:12.724Z,97902.03
2023-08-29T23:31:40.844Z,97901.19
2023-08-29T23:34:07.565Z,97904.19
2023-08-29T23:36:34.843Z,97902.88
2023-08-29T23:39:01.994Z,97905.19
2023-08-29T23:41:28.708Z,97908.53
2023-08-29T23:43:55.462Z,97905.03
2023-08-29T23:46:22.219Z,97901.88
2023-08-29T23:48:48.806Z,97908.16
2023-08-29T23:51:15.401Z,97902.50
2023-08-29T23:53:41.897Z,97905.81
2023-08-29T23:56:08.453Z,97898.16
2023-08-29T23:58:34.872Z,97899.72
